Time;durP1;ratioP1;P1;durP2;ratioP2;P2;SDS_P1;SDS_P2;PMS_P1;PMS_P2;Temp;Humidity;BMP_temperature;BMP_pressure;BME280_temperature;BME280_humidity;BME280_pressure;Samples;Min_cycle;Max_cycle;Signal;HPM_P1;HPM_P2
2022/10/21 00:01:21;;;;;;;34.25;18.13;;;;;;;;;;4992427;28;20081;-75
2022/10/21 00:03:47;;;;;;;26.98;16.55;;;;;;;;;;4982089;28;20065;-75
2022/10/21 00:06:24;;;;;;;41.05;20.20;;;;;;;;;;5004860;28;20133;-75
2022/10/21 00:08:51;;;;;;;38.10;19.38;;;;;;;;;;4990957;28;20030;-75
2022/10/21 00:11:19;;;;;;;37.90;19.77;;;;;;;;;;4973552;28;20040;-75
2022/10/21 00:13:46;;;;;;;36.08;18.67;;;;;;;;;;4972864;28;20033;-75
2022/10/21 00:16:15;;;;;;;35.05;18.50;;;;;;;;;;4973647;28;20039;-75
2022/10/21 00:18:43;;;;;;;37.03;18.50;;;;;;;;;;4989865;28;20537;-75
2022/10/21 00:21:11;;;;;;;30.88;17.88;;;;;;;;;;4991146;28;20038;-75
2022/10/21 00:23:38;;;;;;;30.67;18.55;;;;;;;;;;4992298;28;20033;-75
2022/10/21 00:26:07;;;;;;;36.60;20.77;;;;;;;;;;4991995;28;20557;-75
2022/10/21 00:28:37;;;;;;;;;;;;;;;;;;4993294;28;20042;-75
2022/10/21 00:31:05;;;;;;;44.25;23.50;;;;;;;;;;5010043;28;20267;-75
2022/10/21 00:33:32;;;;;;;45.45;20.98;;;;;;;;;;5008050;28;20409;-75
2022/10/21 00:36:01;;;;;;;42.38;19.48;;;;;;;;;;4991580;28;20041;-75
2022/10/21 00:38:28;;;;;;;38.15;17.27;;;;;;;;;;4992020;28;20042;-75
2022/10/21 00:40:56;;;;;;;35.42;17.33;;;;;;;;;;4976200;28;20064;-75
2022/10/21 00:43:23;;;;;;;25.63;14.57;;;;;;;;;;4991034;28;20140;-74
2022/10/21 00:45:52;;;;;;;31.70;14.88;;;;;;;;;;5008128;28;20500;-74
2022/10/21 00:48:24;;;;;;;28.73;14.23;;;;;;;;;;4991699;28;20030;-75
2022/10/21 00:50:55;;;;;;;30.80;14.95;;;;;;;;;;5007883;28;20038;-75
2022/10/21 00:53:22;;;;;;;30.88;14.95;;;;;;;;;;4978769;28;20034;-74
2022/10/21 00:55:51;;;;;;;29.75;14.45;;;;;;;;;;4979778;28;20049;-75
2022/10/21 00:58:20;;;;;;;27.45;14.20;;;;;;;;;;5003753;28;20061;-75
2022/10/21 01:00:48;;;;;;;27.50;13.45;;;;;;;;;;4987322;28;20080;-75
2022/10/21 01:03:14;;;;;;;30.35;12.93;;;;;;;;;;4990006;28;20540;-75
2022/10/21 01:05:42;;;;;;;29.73;12.73;;;;;;;;;;5008960;28;20041;-74
2022/10/21 01:08:09;;;;;;;27.23;10.93;;;;;;;;;;5001229;28;20061;-75
2022/10/21 01:10:37;;;;;;;32.30;11.90;;;;;;;;;;5002719;28;20262;-76
2022/10/21 01:13:10;;;;;;;24.27;11.70;;;;;;;;;;4986729;28;20096;-75
2022/10/21 01:15:40;;;;;;;25.63;12.88;;;;;;;;;;4987445;28;20042;-74
2022/10/21 01:18:16;;;;;;;25.58;12.93;;;;;;;;;;4987069;28;20512;-75
2022/10/21 01:21:00;;;;;;;35.80;15.75;;;;;;;;;;4987280;28;20034;-74
2022/10/21 01:23:37;;;;;;;36.17;18.35;;;;;;;;;;4988857;28;20031;-75
2022/10/21 01:26:04;;;;;;;33.97;17.13;;;;;;;;;;4997959;28;20104;-75
2022/10/21 01:28:49;;;;;;;36.28;16.98;;;;;;;;;;4990632;28;20038;-75
2022/10/21 01:31:21;;;;;;;37.03;16.65;;;;;;;;;;5010258;28;20686;-75
2022/10/21 01:33:52;;;;;;;32.30;17.33;;;;;;;;;;5008730;28;20036;-75
2022/10/21 01:36:24;;;;;;;31.83;16.25;;;;;;;;;;4994355;28;20038;-75
2022/10/21 01:38:53;;;;;;;33.58;17.15;;;;;;;;;;4995486;28;20495;-75
2022/10/21 01:41:22;;;;;;;44.53;20.90;;;;;;;;;;4995850;28;20103;-75
2022/10/21 01:44:16;;;;;;;36.63;19.20;;;;;;;;;;4995159;28;20088;-75
2022/10/21 01:46:44;;;;;;;46.28;21.60;;;;;;;;;;4995141;28;20108;-74
2022/10/21 01:49:17;;;;;;;37.65;18.63;;;;;;;;;;4995211;28;20064;-75
2022/10/21 01:51:44;;;;;;;36.67;18.13;;;;;;;;;;4995645;28;20033;-75
2022/10/21 01:54:14;;;;;;;34.35;19.48;;;;;;;;;;5006240;28;20041;-75
2022/10/21 01:56:42;;;;;;;33.53;18.58;;;;;;;;;;5006407;28;20037;-75
2022/10/21 01:59:10;;;;;;;43.95;20.50;;;;;;;;;;4991288;28;20054;-75
2022/10/21 02:01:38;;;;;;;36.63;18.08;;;;;;;;;;4992641;28;20034;-75
2022/10/21 02:04:05;;;;;;;34.00;17.83;;;;;;;;;;5000453;28;20040;-75
2022/10/21 02:06:31;;;;;;;43.83;19.92;;;;;;;;;;4996014;28;20022;-75
2022/10/21 02:08:57;;;;;;;35.97;17.02;;;;;;;;;;5012072;28;20137;-75
2022/10/21 02:11:25;;;;;;;30.35;17.27;;;;;;;;;;5003669;28;20022;-75
2022/10/21 02:14:07;;;;;;;59.97;22.15;;;;;;;;;;4995756;28;20046;-75
2022/10/21 02:16:36;;;;;;;49.05;20.05;;;;;;;;;;4995732;28;20041;-75
2022/10/21 02:19:03;;;;;;;36.08;18.90;;;;;;;;;;4995722;28;20038;-75
2022/10/21 02:21:33;;;;;;;36.25;18.67;;;;;;;;;;5012004;28;20088;-75
2022/10/21 02:24:18;;;;;;;31.65;16.98;;;;;;;;;;4995684;28;20503;-75
2022/10/21 02:26:45;;;;;;;33.78;17.65;;;;;;;;;;5013252;28;20072;-75
2022/10/21 02:29:12;;;;;;;32.35;17.67;;;;;;;;;;4995870;28;20045;-75
2022/10/21 02:31:38;;;;;;;45.03;20.10;;;;;;;;;;4995554;28;20156;-75
2022/10/21 02:34:14;;;;;;;37.47;18.38;;;;;;;;;;4995466;28;20361;-75
2022/10/21 02:36:59;;;;;;;33.28;17.85;;;;;;;;;;5012953;28;20020;-75
2022/10/21 02:39:33;;;;;;;40.28;19.30;;;;;;;;;;4995226;28;20045;-75
2022/10/21 02:42:02;;;;;;;30.20;16.67;;;;;;;;;;4994787;28;20563;-75
2022/10/21 02:44:29;;;;;;;33.97;17.85;;;;;;;;;;4993909;28;20045;-74
2022/10/21 02:46:56;;;;;;;40.03;18.35;;;;;;;;;;4963017;28;20389;-75
2022/10/21 02:49:22;;;;;;;38.50;17.98;;;;;;;;;;4994175;28;20473;-74
2022/10/21 02:51:48;;;;;;;45.30;19.45;;;;;;;;;;4992457;28;20077;-75
2022/10/21 02:54:15;;;;;;;42.30;18.92;;;;;;;;;;4986667;28;20029;-75
2022/10/21 02:56:41;;;;;;;46.83;19.58;;;;;;;;;;5007194;28;20519;-75
2022/10/21 02:59:08;;;;;;;40.55;17.30;;;;;;;;;;4994950;28;20100;-75
2022/10/21 03:01:36;;;;;;;40.53;18.90;;;;;;;;;;4994998;28;20033;-75
2022/10/21 03:04:03;;;;;;;39.10;18.10;;;;;;;;;;5011169;28;20022;-74
2022/10/21 03:06:29;;;;;;;46.42;18.55;;;;;;;;;;5011415;28;20388;-75
2022/10/21 03:08:55;;;;;;;39.13;18.38;;;;;;;;;;5011139;28;20124;-75
2022/10/21 03:11:22;;;;;;;37.63;16.95;;;;;;;;;;4991814;28;20117;-75
2022/10/21 03:13:48;;;;;;;32.60;17.40;;;;;;;;;;5011418;28;20492;-75
2022/10/21 03:16:14;;;;;;;41.15;18.35;;;;;;;;;;5010929;28;20478;-74
2022/10/21 03:18:40;;;;;;;37.75;18.50;;;;;;;;;;4994461;28;20085;-75
2022/10/21 03:21:06;;;;;;;44.17;20.05;;;;;;;;;;4994361;28;20049;-75
2022/10/21 03:23:33;;;;;;;40.58;18.83;;;;;;;;;;4994334;28;20026;-75
2022/10/21 03:26:00;;;;;;;47.42;21.33;;;;;;;;;;5010432;28;20038;-75
2022/10/21 03:28:29;;;;;;;40.83;20.10;;;;;;;;;;4994536;28;20089;-75
2022/10/21 03:30:58;;;;;;;39.03;20.73;;;;;;;;;;4994327;28;20046;-75
2022/10/21 03:33:25;;;;;;;46.30;22.67;;;;;;;;;;4994650;28;20420;-75
2022/10/21 03:35:51;;;;;;;42.63;20.67;;;;;;;;;;5012177;28;20034;-75
2022/10/21 03:38:18;;;;;;;46.88;22.25;;;;;;;;;;4994434;28;20468;-75
2022/10/21 03:40:44;;;;;;;45.85;23.20;;;;;;;;;;4993947;28;20042;-75
2022/10/21 03:43:11;;;;;;;43.25;21.63;;;;;;;;;;4993416;28;20507;-75
2022/10/21 03:45:37;;;;;;;36.20;20.58;;;;;;;;;;4993770;28;20113;-74
2022/10/21 03:48:04;;;;;;;43.33;21.88;;;;;;;;;;4994020;28;20038;-75
2022/10/21 03:50:30;;;;;;;45.58;20.98;;;;;;;;;;4993602;28;20038;-74
2022/10/21 03:52:58;;;;;;;39.63;19.63;;;;;;;;;;4989342;28;20025;-75
2022/10/21 03:55:24;;;;;;;38.42;20.33;;;;;;;;;;4973451;28;20111;-75
2022/10/21 03:57:51;;;;;;;37.88;19.23;;;;;;;;;;4993478;28;20034;-75
2022/10/21 04:00:18;;;;;;;40.05;20.65;;;;;;;;;;4979371;28;20038;-75
2022/10/21 04:02:45;;;;;;;38.90;19.77;;;;;;;;;;4974465;28;20491;-75
2022/10/21 04:05:13;;;;;;;37.97;20.17;;;;;;;;;;5000045;28;20038;-75
2022/10/21 04:07:39;;;;;;;45.83;20.40;;;;;;;;;;5009828;28;20033;-75
2022/10/21 04:10:06;;;;;;;47.05;22.42;;;;;;;;;;5010277;28;20034;-75
2022/10/21 04:12:32;;;;;;;44.33;19.55;;;;;;;;;;4990297;28;20037;-75
2022/10/21 04:14:59;;;;;;;40.30;19.80;;;;;;;;;;4993855;28;20534;-75
2022/10/21 04:17:25;;;;;;;35.90;18.25;;;;;;;;;;5010381;28;20084;-75
2022/10/21 04:19:51;;;;;;;45.40;21.27;;;;;;;;;;4993470;28;20041;-74
2022/10/21 04:22:17;;;;;;;36.20;18.83;;;;;;;;;;4993606;28;20030;-75
2022/10/21 04:24:44;;;;;;;40.08;19.88;;;;;;;;;;5009969;28;20026;-75
2022/10/21 04:27:11;;;;;;;40.20;20.45;;;;;;;;;;4993456;28;20022;-75
2022/10/21 04:29:37;;;;;;;37.55;19.38;;;;;;;;;;4993529;28;20030;-75
2022/10/21 04:32:04;;;;;;;48.55;21.65;;;;;;;;;;4993181;28;20041;-77
2022/10/21 04:34:31;;;;;;;42.65;20.20;;;;;;;;;;5011058;28;20033;-75
2022/10/21 04:36:58;;;;;;;44.45;20.45;;;;;;;;;;4993656;28;20034;-75
2022/10/21 04:39:25;;;;;;;37.50;17.70;;;;;;;;;;4993253;28;20070;-75
2022/10/21 04:41:51;;;;;;;55.30;20.95;;;;;;;;;;4989784;28;20243;-75
2022/10/21 04:44:19;;;;;;;35.20;18.27;;;;;;;;;;4973474;28;20442;-75
2022/10/21 04:46:45;;;;;;;40.60;18.05;;;;;;;;;;4973586;28;20023;-75
2022/10/21 04:49:11;;;;;;;40.42;18.00;;;;;;;;;;4992239;28;20370;-75
2022/10/21 04:51:38;;;;;;;45.55;17.75;;;;;;;;;;5009401;28;20122;-75
2022/10/21 04:54:05;;;;;;;44.22;18.35;;;;;;;;;;4986906;28;20036;-75
2022/10/21 04:56:31;;;;;;;36.10;17.48;;;;;;;;;;5002430;28;20556;-75
2022/10/21 04:58:58;;;;;;;39.55;16.95;;;;;;;;;;4989402;28;20026;-75
2022/10/21 05:01:25;;;;;;;35.05;16.42;;;;;;;;;;4989940;28;20125;-75
2022/10/21 05:03:52;;;;;;;35.17;16.58;;;;;;;;;;4973536;28;20061;-74
2022/10/21 05:06:19;;;;;;;52.50;19.02;;;;;;;;;;5007545;28;20492;-74
2022/10/21 05:08:45;;;;;;;38.85;17.05;;;;;;;;;;5013417;28;20377;-75
2022/10/21 05:11:12;;;;;;;33.65;15.88;;;;;;;;;;5011466;28;20040;-75
2022/10/21 05:13:38;;;;;;;33.17;16.50;;;;;;;;;;5014741;28;20026;-75
2022/10/21 05:16:05;;;;;;;39.63;15.60;;;;;;;;;;5014584;28;20388;-75
2022/10/21 05:18:32;;;;;;;43.55;16.70;;;;;;;;;;4996975;28;20076;-75
2022/10/21 05:20:58;;;;;;;40.70;17.38;;;;;;;;;;4996720;28;20033;-75
2022/10/21 05:23:25;;;;;;;30.02;15.55;;;;;;;;;;4996486;28;20038;-74
2022/10/21 05:25:52;;;;;;;32.95;15.38;;;;;;;;;;4996766;28;20480;-75
2022/10/21 05:28:19;;;;;;;33.13;15.23;;;;;;;;;;4996712;28;20022;-75
2022/10/21 05:30:46;;;;;;;33.40;14.80;;;;;;;;;;4996564;28;20057;-75
2022/10/21 05:33:12;;;;;;;34.13;16.05;;;;;;;;;;4996190;28;20042;-75
2022/10/21 05:35:39;;;;;;;40.67;16.90;;;;;;;;;;4996539;28;20042;-74
2022/10/21 05:38:08;;;;;;;36.97;16.23;;;;;;;;;;4996559;28;20037;-75
2022/10/21 05:40:35;;;;;;;33.58;15.20;;;;;;;;;;4996834;28;20141;-75
2022/10/21 05:43:02;;;;;;;35.85;15.32;;;;;;;;;;4996717;28;20125;-75
2022/10/21 05:45:28;;;;;;;31.80;15.48;;;;;;;;;;4995464;28;20038;-75
2022/10/21 05:47:56;;;;;;;33.78;14.55;;;;;;;;;;4987585;28;20038;-75
2022/10/21 05:50:22;;;;;;;30.67;15.23;;;;;;;;;;4992822;28;20062;-75
2022/10/21 05:52:48;;;;;;;31.20;15.02;;;;;;;;;;4963042;28;20496;-75
2022/10/21 05:55:15;;;;;;;32.72;15.15;;;;;;;;;;4998301;28;20026;-75
2022/10/21 05:57:41;;;;;;;34.03;14.52;;;;;;;;;;5012900;28;20053;-75
2022/10/21 06:00:08;;;;;;;32.45;15.10;;;;;;;;;;4986225;28;20117;-75
2022/10/21 06:02:35;;;;;;;44.13;17.30;;;;;;;;;;4994138;28;20045;-75
2022/10/21 06:05:02;;;;;;;40.28;15.98;;;;;;;;;;4996903;28;20056;-75
2022/10/21 06:07:29;;;;;;;38.25;16.38;;;;;;;;;;5012332;28;20022;-75
2022/10/21 06:09:55;;;;;;;31.08;14.40;;;;;;;;;;4995958;28;20386;-74
2022/10/21 06:12:22;;;;;;;27.55;14.70;;;;;;;;;;4992380;28;20444;-74
2022/10/21 06:14:49;;;;;;;45.83;17.05;;;;;;;;;;4995928;28;20046;-75
2022/10/21 06:17:16;;;;;;;32.10;15.00;;;;;;;;;;4995137;28;20096;-74
2022/10/21 06:19:45;;;;;;;35.05;14.63;;;;;;;;;;5011995;28;20567;-75
2022/10/21 06:22:11;;;;;;;39.22;16.23;;;;;;;;;;5012100;28;20499;-75
2022/10/21 06:24:37;;;;;;;40.60;15.70;;;;;;;;;;5009301;28;20096;-75
2022/10/21 06:27:07;;;;;;;32.28;14.70;;;;;;;;;;5004772;28;20046;-75
2022/10/21 06:29:33;;;;;;;30.65;13.85;;;;;;;;;;5005528;28;20060;-75
2022/10/21 06:32:00;;;;;;;31.83;14.13;;;;;;;;;;4992430;28;20177;-75
2022/10/21 06:34:26;;;;;;;31.08;13.40;;;;;;;;;;5012330;28;20452;-74
2022/10/21 06:36:52;;;;;;;31.45;14.52;;;;;;;;;;4993181;28;20495;-75
2022/10/21 06:39:19;;;;;;;25.38;12.88;;;;;;;;;;5008484;28;20037;-75
2022/10/21 06:41:45;;;;;;;28.70;13.77;;;;;;;;;;4992119;28;20112;-75
2022/10/21 06:44:11;;;;;;;26.08;12.52;;;;;;;;;;4994028;28;20054;-75
2022/10/21 06:46:38;;;;;;;31.00;14.32;;;;;;;;;;4995027;28;20480;-77
2022/10/21 06:49:07;;;;;;;26.73;12.05;;;;;;;;;;4992669;28;20026;-76
2022/10/21 06:51:34;;;;;;;29.30;13.50;;;;;;;;;;4992344;28;20022;-75
2022/10/21 06:54:01;;;;;;;29.02;12.50;;;;;;;;;;4989115;28;20049;-76
2022/10/21 06:56:28;;;;;;;27.05;12.25;;;;;;;;;;4992802;28;20049;-75
2022/10/21 06:58:58;;;;;;;24.95;12.48;;;;;;;;;;4991605;28;20049;-75
2022/10/21 07:01:26;;;;;;;28.60;12.23;;;;;;;;;;4994645;28;20480;-75
2022/10/21 07:03:53;;;;;;;28.33;12.82;;;;;;;;;;4994748;28;20073;-75
2022/10/21 07:06:20;;;;;;;25.92;12.25;;;;;;;;;;4995645;28;20026;-75
2022/10/21 07:08:49;;;;;;;24.90;13.13;;;;;;;;;;4992925;28;20604;-75
2022/10/21 07:11:16;;;;;;;30.08;12.65;;;;;;;;;;4995418;28;20040;-75
2022/10/21 07:13:43;;;;;;;32.75;14.43;;;;;;;;;;4994444;28;20519;-76
2022/10/21 07:16:17;;;;;;;27.92;12.93;;;;;;;;;;4995400;28;20041;-76
2022/10/21 07:18:44;;;;;;;27.58;11.75;;;;;;;;;;4995217;28;20029;-76
2022/10/21 07:21:13;;;;;;;21.83;11.85;;;;;;;;;;4994595;28;20034;-76
2022/10/21 07:23:39;;;;;;;31.02;13.20;;;;;;;;;;4993689;28;20048;-76
2022/10/21 07:26:06;;;;;;;27.50;12.35;;;;;;;;;;4993690;28;20029;-76
2022/10/21 07:28:33;;;;;;;28.23;12.68;;;;;;;;;;4994367;28;20034;-76
2022/10/21 07:31:00;;;;;;;29.92;13.32;;;;;;;;;;4994177;28;20064;-76
2022/10/21 07:33:26;;;;;;;26.08;12.77;;;;;;;;;;4977227;28;20041;-76
2022/10/21 07:36:04;;;;;;;31.17;13.43;;;;;;;;;;4994121;28;20388;-76
2022/10/21 07:38:32;;;;;;;25.20;12.63;;;;;;;;;;4991823;28;20052;-76
2022/10/21 07:40:59;;;;;;;31.35;13.00;;;;;;;;;;4993970;28;20444;-76
2022/10/21 07:43:25;;;;;;;40.92;15.27;;;;;;;;;;4993117;28;20029;-76
2022/10/21 07:45:51;;;;;;;28.48;13.48;;;;;;;;;;4993895;28;20153;-76
2022/10/21 07:48:18;;;;;;;27.75;12.77;;;;;;;;;;4991657;28;20494;-76
2022/10/21 07:50:46;;;;;;;26.52;12.23;;;;;;;;;;4993335;28;20022;-75
2022/10/21 07:53:13;;;;;;;28.27;13.00;;;;;;;;;;4988942;28;20041;-76
2022/10/21 07:55:40;;;;;;;26.65;12.40;;;;;;;;;;4991057;28;20044;-76
2022/10/21 07:58:07;;;;;;;24.58;12.27;;;;;;;;;;4993488;28;20029;-76
2022/10/21 08:00:33;;;;;;;26.08;12.63;;;;;;;;;;4986909;28;20034;-76
2022/10/21 08:03:01;;;;;;;30.42;12.27;;;;;;;;;;5000909;28;20117;-76
2022/10/21 08:05:27;;;;;;;24.10;10.88;;;;;;;;;;4989215;28;20022;-76
2022/10/21 08:07:57;;;;;;;23.65;12.13;;;;;;;;;;4978068;28;20033;-76
2022/10/21 08:10:23;;;;;;;21.55;11.35;;;;;;;;;;4992909;28;20057;-76
2022/10/21 08:12:50;;;;;;;21.52;10.50;;;;;;;;;;4999653;28;20038;-76
2022/10/21 08:15:16;;;;;;;23.85;10.52;;;;;;;;;;4993467;28;20799;-76
2022/10/21 08:17:42;;;;;;;20.55;10.27;;;;;;;;;;4990263;28;20128;-76
2022/10/21 08:20:08;;;;;;;22.85;10.55;;;;;;;;;;4992923;28;20030;-75
2022/10/21 08:22:34;;;;;;;20.88;10.07;;;;;;;;;;4992917;28;20021;-75
2022/10/21 08:25:00;;;;;;;21.27;9.57;;;;;;;;;;4993485;28;20028;-76
2022/10/21 08:27:26;;;;;;;26.60;10.13;;;;;;;;;;4993511;28;20014;-76
2022/10/21 08:29:52;;;;;;;20.20;10.48;;;;;;;;;;4993573;28;20495;-77
2022/10/21 08:32:18;;;;;;;24.95;10.13;;;;;;;;;;4990386;28;20034;-76
2022/10/21 08:34:44;;;;;;;20.52;10.48;;;;;;;;;;4987181;28;20030;-76
2022/10/21 08:37:10;;;;;;;20.73;10.13;;;;;;;;;;5001160;28;20493;-76
2022/10/21 08:39:36;;;;;;;21.85;10.10;;;;;;;;;;4984701;28;20038;-76
2022/10/21 08:42:06;;;;;;;21.88;10.85;;;;;;;;;;5008907;28;20065;-77
2022/10/21 08:44:32;;;;;;;20.30;10.45;;;;;;;;;;5011653;28;20468;-77
2022/10/21 08:46:58;;;;;;;25.50;10.98;;;;;;;;;;5011490;28;20046;-77
2022/10/21 08:49:29;;;;;;;19.98;10.55;;;;;;;;;;5011165;28;20022;-77
2022/10/21 08:51:58;;;;;;;18.95;9.27;;;;;;;;;;5010904;28;20105;-77
2022/10/21 08:54:26;;;;;;;25.17;10.80;;;;;;;;;;5000503;28;20030;-77
2022/10/21 08:56:54;;;;;;;19.25;9.93;;;;;;;;;;5011547;28;20113;-77
2022/10/21 08:59:22;;;;;;;16.13;9.43;;;;;;;;;;5004226;28;20018;-77
2022/10/21 09:02:03;;;;;;;18.75;10.10;;;;;;;;;;4991845;28;20056;-77
2022/10/21 09:04:29;;;;;;;22.75;11.43;;;;;;;;;;4991636;28;20037;-77
2022/10/21 09:07:01;;;;;;;25.63;11.38;;;;;;;;;;4991972;28;20031;-77
2022/10/21 09:09:42;;;;;;;18.80;10.80;;;;;;;;;;4992064;28;20033;-77
2022/10/21 09:12:12;;;;;;;28.65;11.60;;;;;;;;;;5000032;28;20042;-77
2022/10/21 09:14:57;;;;;;;21.70;10.30;;;;;;;;;;5011347;28;20121;-77
2022/10/21 09:17:30;;;;;;;16.38;9.50;;;;;;;;;;5011233;28;20105;-77
2022/10/21 09:20:02;;;;;;;21.02;10.07;;;;;;;;;;5011304;28;20040;-76
2022/10/21 09:22:28;;;;;;;;;;;;;;;;;;5011600;28;20549;-78
2022/10/21 09:25:18;;;;;;;23.17;10.88;;;;;;;;;;5010281;28;19964;-77
2022/10/21 09:27:44;;;;;;;15.23;9.05;;;;;;;;;;5010654;28;20574;-74
2022/10/21 09:30:14;;;;;;;20.00;10.27;;;;;;;;;;4993625;28;20030;-76
2022/10/21 09:32:41;;;;;;;19.35;9.93;;;;;;;;;;5011144;28;20453;-76
2022/10/21 09:35:20;;;;;;;19.35;10.32;;;;;;;;;;4993949;28;20026;-76
2022/10/21 09:38:01;;;;;;;24.05;10.63;;;;;;;;;;5011125;28;20376;-76
2022/10/21 09:40:29;;;;;;;22.80;11.93;;;;;;;;;;5011233;28;20030;-76
2022/10/21 09:42:57;;;;;;;21.25;10.90;;;;;;;;;;5011194;28;20026;-76
2022/10/21 09:45:37;;;;;;;27.10;11.27;;;;;;;;;;5010991;28;20050;-76
2022/10/21 09:48:19;;;;;;;19.55;10.38;;;;;;;;;;5010962;28;20105;-76
2022/10/21 09:50:50;;;;;;;25.27;11.52;;;;;;;;;;4992998;28;20026;-76
2022/10/21 09:53:33;;;;;;;18.33;10.90;;;;;;;;;;5004490;28;20042;-76
2022/10/21 09:56:01;;;;;;;19.27;10.32;;;;;;;;;;4980375;28;20623;-76
2022/10/21 09:58:48;;;;;;;19.17;10.35;;;;;;;;;;4995716;28;20019;-76
2022/10/21 10:01:21;;;;;;;20.73;10.32;;;;;;;;;;4995576;28;20030;-76
2022/10/21 10:03:49;;;;;;;21.58;10.70;;;;;;;;;;4995214;28;20040;-76
2022/10/21 10:06:30;;;;;;;20.10;10.32;;;;;;;;;;4995485;28;20362;-76
2022/10/21 10:09:05;;;;;;;19.92;10.35;;;;;;;;;;4993885;28;20027;-76
2022/10/21 10:11:32;;;;;;;18.42;10.43;;;;;;;;;;5005858;28;20026;-76
2022/10/21 10:13:58;;;;;;;14.23;9.20;;;;;;;;;;5012972;28;20080;-76
2022/10/21 10:16:31;;;;;;;16.88;9.70;;;;;;;;;;5014276;28;20018;-77
2022/10/21 10:19:17;;;;;;;18.88;9.82;;;;;;;;;;5012356;28;20514;-77
2022/10/21 10:21:47;;;;;;;20.17;10.07;;;;;;;;;;5014101;28;20080;-75
2022/10/21 10:24:17;;;;;;;18.35;9.63;;;;;;;;;;5013730;28;20531;-75
2022/10/21 10:26:44;;;;;;;18.30;9.40;;;;;;;;;;5013522;28;20028;-75
2022/10/21 10:29:18;;;;;;;17.50;9.05;;;;;;;;;;5013793;28;20050;-75
2022/10/21 10:31:49;;;;;;;18.77;8.88;;;;;;;;;;5012117;28;20030;-75
2022/10/21 10:34:22;;;;;;;14.90;9.43;;;;;;;;;;5011991;28;20472;-75
2022/10/21 10:36:49;;;;;;;19.48;9.00;;;;;;;;;;4996993;28;20113;-75
2022/10/21 10:39:22;;;;;;;18.63;9.27;;;;;;;;;;5002720;28;20039;-75
2022/10/21 10:41:49;;;;;;;17.05;9.50;;;;;;;;;;4980767;28;20114;-74
2022/10/21 10:44:23;;;;;;;14.32;8.63;;;;;;;;;;5008431;28;20053;-75
2022/10/21 10:46:53;;;;;;;17.98;9.60;;;;;;;;;;5011630;28;20119;-75
2022/10/21 10:49:21;;;;;;;23.10;9.35;;;;;;;;;;5011319;28;20025;-75
2022/10/21 10:51:48;;;;;;;17.45;8.95;;;;;;;;;;5011350;28;20022;-75
2022/10/21 10:54:19;;;;;;;17.90;8.43;;;;;;;;;;5005981;28;20061;-75
2022/10/21 10:56:45;;;;;;;13.68;7.28;;;;;;;;;;4992892;28;20026;-75
2022/10/21 10:59:20;;;;;;;15.35;7.07;;;;;;;;;;5006647;28;20486;-75
2022/10/21 11:01:51;;;;;;;10.95;6.50;;;;;;;;;;5010758;28;20042;-75
2022/10/21 11:04:21;;;;;;;13.93;6.55;;;;;;;;;;5010474;28;20224;-75
2022/10/21 11:06:52;;;;;;;12.63;6.38;;;;;;;;;;5007353;28;20025;-75
2022/10/21 11:09:19;;;;;;;11.73;6.20;;;;;;;;;;4999624;28;20044;-74
2022/10/21 11:11:46;;;;;;;20.85;8.05;;;;;;;;;;5002072;28;20441;-75
2022/10/21 11:14:14;;;;;;;9.23;5.93;;;;;;;;;;4999114;28;20531;-77
2022/10/21 11:17:03;;;;;;;14.65;6.88;;;;;;;;;;5006133;28;20445;-77
2022/10/21 11:19:34;;;;;;;11.70;5.93;;;;;;;;;;5005218;28;20045;-77
2022/10/21 11:22:12;;;;;;;13.52;6.85;;;;;;;;;;5012697;28;20031;-77
2022/10/21 11:24:38;;;;;;;12.45;6.43;;;;;;;;;;5012944;28;20021;-77
2022/10/21 11:27:19;;;;;;;12.30;6.22;;;;;;;;;;5013041;28;20022;-78
2022/10/21 11:30:18;;;;;;;16.30;5.82;;;;;;;;;;5013308;28;20349;-77
2022/10/21 11:32:55;;;;;;;13.43;5.95;;;;;;;;;;4970511;28;20507;-77
2022/10/21 11:35:24;;;;;;;9.95;5.85;;;;;;;;;;5013163;28;20053;-77
2022/10/21 11:38:02;;;;;;;13.18;6.28;;;;;;;;;;5011867;28;20084;-78
2022/10/21 11:40:32;;;;;;;16.02;5.55;;;;;;;;;;5011883;28;20029;-77
2022/10/21 11:43:17;;;;;;;12.02;6.28;;;;;;;;;;4998556;28;20058;-78
2022/10/21 11:45:46;;;;;;;11.13;5.30;;;;;;;;;;4993855;28;20370;-77
2022/10/21 11:48:24;;;;;;;7.32;4.70;;;;;;;;;;5005919;28;20061;-77
2022/10/21 11:50:58;;;;;;;8.50;4.95;;;;;;;;;;4992262;28;20419;-78
2022/10/21 11:53:50;;;;;;;13.45;5.13;;;;;;;;;;5005047;28;20082;-77
2022/10/21 11:56:16;;;;;;;;;;;;;;;;;;4990812;28;20567;-79
2022/10/21 11:58:48;;;;;;;7.47;4.90;;;;;;;;;;5013219;28;19949;-80
2022/10/21 12:01:36;;;;;;;9.38;5.20;;;;;;;;;;5012963;28;20372;-77
2022/10/21 12:04:17;;;;;;;10.07;5.55;;;;;;;;;;5004228;28;20113;-78
2022/10/21 12:06:50;;;;;;;11.07;5.38;;;;;;;;;;5006131;28;20085;-79
2022/10/21 12:09:32;;;;;;;13.38;5.57;;;;;;;;;;5004622;28;20026;-78
2022/10/21 12:12:04;;;;;;;9.82;5.35;;;;;;;;;;4978341;28;20018;-78
2022/10/21 12:14:33;;;;;;;13.45;5.68;;;;;;;;;;4993794;28;20456;-78
2022/10/21 12:17:01;;;;;;;10.82;5.28;;;;;;;;;;5006289;28;20470;-78
2022/10/21 12:19:27;;;;;;;12.38;5.78;;;;;;;;;;4977261;28;20023;-78
2022/10/21 12:21:54;;;;;;;10.75;5.88;;;;;;;;;;5005463;28;20116;-78
2022/10/21 12:24:38;;;;;;;14.35;6.03;;;;;;;;;;5008421;28;20037;-77
2022/10/21 12:27:21;;;;;;;16.27;5.43;;;;;;;;;;4992967;28;20027;-77
2022/10/21 12:29:53;;;;;;;10.85;6.20;;;;;;;;;;5012844;28;20066;-79
2022/10/21 12:32:27;;;;;;;10.32;5.97;;;;;;;;;;4995325;28;20151;-79
2022/10/21 12:34:53;;;;;;;10.57;5.68;;;;;;;;;;5012634;28;20030;-79
2022/10/21 12:37:39;;;;;;;10.07;5.40;;;;;;;;;;4994879;28;20038;-77
2022/10/21 12:40:29;;;;;;;13.13;5.47;;;;;;;;;;5012447;28;20198;-79
2022/10/21 12:42:58;;;;;;;13.23;5.53;;;;;;;;;;4982667;28;20124;-80
2022/10/21 12:45:25;;;;;;;12.52;5.82;;;;;;;;;;4994772;28;20796;-80
2022/10/21 12:47:52;;;;;;;9.45;6.07;;;;;;;;;;5012619;28;20022;-79
2022/10/21 12:50:18;;;;;;;15.85;6.75;;;;;;;;;;4995181;28;20040;-80
2022/10/21 12:52:45;;;;;;;13.20;6.15;;;;;;;;;;5008813;28;20031;-78
2022/10/21 12:55:19;;;;;;;10.60;5.65;;;;;;;;;;4993253;28;20033;-78
2022/10/21 12:57:45;;;;;;;13.63;5.97;;;;;;;;;;4993160;28;20027;-78
2022/10/21 13:00:26;;;;;;;11.70;5.85;;;;;;;;;;4991636;28;20045;-78
2022/10/21 13:02:58;;;;;;;11.35;5.82;;;;;;;;;;5012040;28;20033;-79
2022/10/21 13:05:24;;;;;;;;;;;;;;;;;;5012967;28;20072;-78
2022/10/21 13:08:10;;;;;;;12.80;5.95;;;;;;;;;;5012162;28;19913;-78
2022/10/21 13:10:36;;;;;;;9.88;5.35;;;;;;;;;;4994886;28;20041;-79
2022/10/21 13:13:38;;;;;;;8.43;3.80;;;;;;;;;;4978686;28;20026;-78
2022/10/21 13:16:19;;;;;;;9.20;3.45;;;;;;;;;;4913984;29;20032;-78
2022/10/21 13:19:06;;;;;;;9.80;3.40;;;;;;;;;;4985483;28;20061;-79
2022/10/21 13:21:36;;;;;;;6.20;2.75;;;;;;;;;;5009653;28;20030;-77
2022/10/21 13:24:14;;;;;;;10.05;3.83;;;;;;;;;;5012040;28;20045;-78
2022/10/21 13:26:48;;;;;;;10.88;3.40;;;;;;;;;;5001505;28;20495;-79
2022/10/21 13:29:22;;;;;;;5.43;2.35;;;;;;;;;;5009505;28;20033;-79
2022/10/21 13:32:08;;;;;;;8.95;2.35;;;;;;;;;;4994534;28;20037;-78
2022/10/21 13:34:35;;;;;;;5.47;2.65;;;;;;;;;;4996465;28;20025;-80
2022/10/21 13:37:11;;;;;;;6.93;2.50;;;;;;;;;;5015806;28;20472;-78
2022/10/21 13:39:38;;;;;;;7.13;2.50;;;;;;;;;;4995913;28;20037;-79
2022/10/21 13:42:07;;;;;;;8.20;2.95;;;;;;;;;;4985957;28;20117;-78
2022/10/21 13:44:38;;;;;;;6.45;2.95;;;;;;;;;;4998367;28;20042;-79
2022/10/21 13:47:23;;;;;;;7.15;2.63;;;;;;;;;;5015896;28;20018;-79
2022/10/21 13:49:51;;;;;;;6.25;2.22;;;;;;;;;;5015635;28;20025;-79
2022/10/21 13:52:17;;;;;;;7.15;2.47;;;;;;;;;;5011327;28;20018;-79
2022/10/21 13:54:43;;;;;;;11.32;2.75;;;;;;;;;;4998089;28;20061;-79
2022/10/21 13:57:10;;;;;;;4.22;2.03;;;;;;;;;;4997819;28;20030;-79
2022/10/21 13:59:36;;;;;;;6.75;2.30;;;;;;;;;;4998622;28;20030;-79
2022/10/21 14:02:04;;;;;;;4.38;2.33;;;;;;;;;;5015858;28;20042;-79
2022/10/21 14:04:32;;;;;;;2.75;1.73;;;;;;;;;;5015359;28;20380;-79
2022/10/21 14:07:03;;;;;;;3.70;1.77;;;;;;;;;;5014461;28;20021;-79
2022/10/21 14:09:44;;;;;;;5.15;1.88;;;;;;;;;;5015683;28;20036;-79
2022/10/21 14:12:20;;;;;;;6.28;1.73;;;;;;;;;;5015587;28;20029;-79
2022/10/21 14:14:47;;;;;;;5.10;1.90;;;;;;;;;;5015251;28;20484;-79
2022/10/21 14:17:18;;;;;;;8.98;2.00;;;;;;;;;;5004975;28;20041;-79
2022/10/21 14:19:47;;;;;;;6.03;2.13;;;;;;;;;;5015185;28;20026;-79
2022/10/21 14:22:17;;;;;;;9.25;1.90;;;;;;;;;;5014829;28;20030;-79
2022/10/21 14:24:45;;;;;;;6.95;2.08;;;;;;;;;;5015260;28;20018;-79
2022/10/21 14:27:16;;;;;;;3.00;1.55;;;;;;;;;;5015116;28;20045;-80
2022/10/21 14:29:43;;;;;;;6.68;1.83;;;;;;;;;;5015170;28;20026;-80
2022/10/21 14:32:14;;;;;;;5.65;1.80;;;;;;;;;;5015371;28;20033;-79
2022/10/21 14:34:59;;;;;;;4.07;1.60;;;;;;;;;;5015108;28;20033;-80
2022/10/21 14:37:25;;;;;;;3.70;2.00;;;;;;;;;;5014085;28;20029;-80
2022/10/21 14:39:51;;;;;;;3.92;1.33;;;;;;;;;;5014805;28;20025;-80